sensor_id;sensor_type;location;lat;lon;timestamp;pressure;altitude;pressure_sealevel;temperature;humidity
5296;BME280;2670;42.720;23.336;2023-05-09T00:00:47;-22813.50;;;12.78;100.00
5296;BME280;2670;42.720;23.336;2023-05-09T00:03:13;-22813.06;;;12.76;100.00
5296;BME280;2670;42.720;23.336;2023-05-09T00:05:41;-22815.28;;;12.84;100.00
5296;BME280;2670;42.720;23.336;2023-05-09T00:08:09;-22813.66;;;12.78;100.00
5296;BME280;2670;42.720;23.336;2023-05-09T00:10:36;-22813.78;;;12.79;100.00
5296;BME280;2670;42.720;23.336;2023-05-09T00:13:03;-22815.88;;;12.86;100.00
5296;BME280;2670;42.720;23.336;2023-05-09T00:15:30;-22812.47;;;12.74;100.00
5296;BME280;2670;42.720;23.336;2023-05-09T00:17:56;-22810.69;;;12.68;100.00
5296;BME280;2670;42.720;23.336;2023-05-09T00:20:23;-22808.78;;;12.61;100.00
5296;BME280;2670;42.720;23.336;2023-05-09T00:22:51;-22812.75;;;12.75;100.00
5296;BME280;2670;42.720;23.336;2023-05-09T00:25:19;-22810.41;;;12.67;100.00
5296;BME280;2670;42.720;23.336;2023-05-09T00:27:46;-22809.50;;;12.64;100.00
5296;BME280;2670;42.720;23.336;2023-05-09T00:30:12;-22809.06;;;12.62;100.00
5296;BME280;2670;42.720;23.336;2023-05-09T00:32:39;-22809.06;;;12.62;100.00
5296;BME280;2670;42.720;23.336;2023-05-09T00:35:07;-22810.53;;;12.67;100.00
5296;BME280;2670;42.720;23.336;2023-05-09T00:37:34;-22810.09;;;12.66;100.00
5296;BME280;2670;42.720;23.336;2023-05-09T00:40:03;-22808.03;;;12.59;100.00
5296;BME280;2670;42.720;23.336;2023-05-09T00:42:30;-22808.19;;;12.59;100.00
5296;BME280;2670;42.720;23.336;2023-05-09T00:44:57;-22806.72;;;12.54;100.00
5296;BME280;2670;42.720;23.336;2023-05-09T00:47:26;-22806.13;;;12.52;100.00
5296;BME280;2670;42.720;23.336;2023-05-09T00:49:53;-22806.25;;;12.53;100.00
5296;BME280;2670;42.720;23.336;2023-05-09T00:52:21;-22805.22;;;12.49;100.00
5296;BME280;2670;42.720;23.336;2023-05-09T00:54:50;-22806.72;;;12.54;100.00
5296;BME280;2670;42.720;23.336;2023-05-09T00:57:18;-22808.03;;;12.59;100.00
5296;BME280;2670;42.720;23.336;2023-05-09T00:59:45;-22809.50;;;12.64;100.00
5296;BME280;2670;42.720;23.336;2023-05-09T01:02:12;-22808.34;;;12.60;100.00
5296;BME280;2670;42.720;23.336;2023-05-09T01:04:39;-22808.03;;;12.59;100.00
5296;BME280;2670;42.720;23.336;2023-05-09T01:07:13;-22808.63;;;12.61;100.00
5296;BME280;2670;42.720;23.336;2023-05-09T01:09:48;-22808.03;;;12.59;100.00
5296;BME280;2670;42.720;23.336;2023-05-09T01:12:25;-22810.09;;;12.66;100.00
5296;BME280;2670;42.720;23.336;2023-05-09T01:14:56;-22808.47;;;12.60;100.00
5296;BME280;2670;42.720;23.336;2023-05-09T01:17:31;-22808.34;;;12.60;100.00
5296;BME280;2670;42.720;23.336;2023-05-09T01:20:03;-22808.47;;;12.60;100.00
5296;BME280;2670;42.720;23.336;2023-05-09T01:22:36;-22809.66;;;12.64;100.00
5296;BME280;2670;42.720;23.336;2023-05-09T01:25:27;-22809.22;;;12.63;100.00
5296;BME280;2670;42.720;23.336;2023-05-09T01:28:09;-22809.66;;;12.64;100.00
5296;BME280;2670;42.720;23.336;2023-05-09T01:30:41;-22809.81;;;12.65;100.00
5296;BME280;2670;42.720;23.336;2023-05-09T01:33:12;-22809.38;;;12.63;100.00
5296;BME280;2670;42.720;23.336;2023-05-09T01:35:43;-22810.25;;;12.66;100.00
5296;BME280;2670;42.720;23.336;2023-05-09T01:38:17;-22808.47;;;12.60;100.00
5296;BME280;2670;42.720;23.336;2023-05-09T01:40:48;-22810.53;;;12.67;100.00
5296;BME280;2670;42.720;23.336;2023-05-09T01:43:18;-22808.78;;;12.61;100.00
5296;BME280;2670;42.720;23.336;2023-05-09T01:45:48;-22809.66;;;12.64;100.00
5296;BME280;2670;42.720;23.336;2023-05-09T01:48:16;-22809.81;;;12.65;100.00
5296;BME280;2670;42.720;23.336;2023-05-09T01:50:43;-22808.91;;;12.62;100.00
5296;BME280;2670;42.720;23.336;2023-05-09T01:53:11;-22808.78;;;12.61;100.00
5296;BME280;2670;42.720;23.336;2023-05-09T01:55:39;-22808.91;;;12.62;100.00
5296;BME280;2670;42.720;23.336;2023-05-09T01:58:07;-22808.19;;;12.59;100.00
5296;BME280;2670;42.720;23.336;2023-05-09T02:00:35;-22809.50;;;12.64;100.00
5296;BME280;2670;42.720;23.336;2023-05-09T02:03:04;-22812.63;;;12.75;100.00
5296;BME280;2670;42.720;23.336;2023-05-09T02:05:31;-22813.06;;;12.76;100.00
5296;BME280;2670;42.720;23.336;2023-05-09T02:07:59;-22810.84;;;12.68;100.00
5296;BME280;2670;42.720;23.336;2023-05-09T02:10:26;-22809.81;;;12.65;100.00
5296;BME280;2670;42.720;23.336;2023-05-09T02:12:54;-22811.13;;;12.69;100.00
5296;BME280;2670;42.720;23.336;2023-05-09T02:15:20;-22812.91;;;12.76;100.00
5296;BME280;2670;42.720;23.336;2023-05-09T02:17:47;-22809.66;;;12.64;100.00
5296;BME280;2670;42.720;23.336;2023-05-09T02:20:15;-22810.69;;;12.68;100.00
5296;BME280;2670;42.720;23.336;2023-05-09T02:22:43;-22807.00;;;12.55;100.00
5296;BME280;2670;42.720;23.336;2023-05-09T02:25:11;-22807.88;;;12.58;100.00
5296;BME280;2670;42.720;23.336;2023-05-09T02:27:39;-22807.88;;;12.58;100.00
5296;BME280;2670;42.720;23.336;2023-05-09T02:30:11;-22807.44;;;12.57;100.00
5296;BME280;2670;42.720;23.336;2023-05-09T02:32:42;-22806.13;;;12.52;100.00
5296;BME280;2670;42.720;23.336;2023-05-09T02:35:10;-22805.22;;;12.49;100.00
5296;BME280;2670;42.720;23.336;2023-05-09T02:37:40;-22805.66;;;12.51;100.00
5296;BME280;2670;42.720;23.336;2023-05-09T02:40:08;-22805.22;;;12.49;100.00
5296;BME280;2670;42.720;23.336;2023-05-09T02:42:35;-22805.66;;;12.51;100.00
5296;BME280;2670;42.720;23.336;2023-05-09T02:45:02;-22805.06;;;12.49;100.00
5296;BME280;2670;42.720;23.336;2023-05-09T02:47:29;-22805.22;;;12.49;100.00
5296;BME280;2670;42.720;23.336;2023-05-09T02:49:56;-22805.97;;;12.52;100.00
5296;BME280;2670;42.720;23.336;2023-05-09T02:52:23;-22805.81;;;12.51;100.00
5296;BME280;2670;42.720;23.336;2023-05-09T02:54:51;-22808.63;;;12.61;100.00
5296;BME280;2670;42.720;23.336;2023-05-09T02:57:18;-22805.81;;;12.51;100.00
5296;BME280;2670;42.720;23.336;2023-05-09T02:59:45;-22805.66;;;12.51;100.00
5296;BME280;2670;42.720;23.336;2023-05-09T03:02:12;-22804.78;;;12.48;100.00
5296;BME280;2670;42.720;23.336;2023-05-09T03:04:38;-22803.59;;;12.43;100.00
5296;BME280;2670;42.720;23.336;2023-05-09T03:07:05;-22805.97;;;12.52;100.00
5296;BME280;2670;42.720;23.336;2023-05-09T03:09:32;-22807.72;;;12.58;100.00
5296;BME280;2670;42.720;23.336;2023-05-09T03:12:00;-22804.50;;;12.46;100.00
5296;BME280;2670;42.720;23.336;2023-05-09T03:14:26;-22806.56;;;12.54;100.00
5296;BME280;2670;42.720;23.336;2023-05-09T03:16:53;-22804.78;;;12.48;100.00
5296;BME280;2670;42.720;23.336;2023-05-09T03:19:20;-22802.13;;;12.38;100.00
5296;BME280;2670;42.720;23.336;2023-05-09T03:21:46;-22798.28;;;12.25;100.00
5296;BME280;2670;42.720;23.336;2023-05-09T03:24:13;-22797.53;;;12.23;100.00
5296;BME280;2670;42.720;23.336;2023-05-09T03:26:40;-22799.31;;;12.29;100.00
5296;BME280;2670;42.720;23.336;2023-05-09T03:29:08;-22793.56;;;12.09;100.00
5296;BME280;2670;42.720;23.336;2023-05-09T03:31:34;-22793.69;;;12.09;100.00
5296;BME280;2670;42.720;23.336;2023-05-09T03:34:01;-22794.00;;;12.10;100.00
5296;BME280;2670;42.720;23.336;2023-05-09T03:36:28;-22793.84;;;12.10;100.00
5296;BME280;2670;42.720;23.336;2023-05-09T03:38:56;-22794.28;;;12.11;100.00
5296;BME280;2670;42.720;23.336;2023-05-09T03:41:22;-22794.28;;;12.11;100.00
5296;BME280;2670;42.720;23.336;2023-05-09T03:43:49;-22791.63;;;12.02;100.00
5296;BME280;2670;42.720;23.336;2023-05-09T03:46:17;-22793.56;;;12.09;100.00
5296;BME280;2670;42.720;23.336;2023-05-09T03:48:44;-22797.41;;;12.22;100.00
5296;BME280;2670;42.720;23.336;2023-05-09T03:51:10;-22798.72;;;12.27;100.00
5296;BME280;2670;42.720;23.336;2023-05-09T03:53:37;-22798.13;;;12.25;100.00
5296;BME280;2670;42.720;23.336;2023-05-09T03:56:04;-22798.88;;;12.27;100.00
5296;BME280;2670;42.720;23.336;2023-05-09T03:58:31;-22800.66;;;12.33;100.00
5296;BME280;2670;42.720;23.336;2023-05-09T04:00:58;-22800.19;;;12.32;100.00
5296;BME280;2670;42.720;23.336;2023-05-09T04:03:26;-22800.19;;;12.32;100.00
5296;BME280;2670;42.720;23.336;2023-05-09T04:05:53;-22799.91;;;12.31;100.00
5296;BME280;2670;42.720;23.336;2023-05-09T04:08:20;-22800.66;;;12.33;100.00
5296;BME280;2670;42.720;23.336;2023-05-09T04:10:48;-22800.50;;;12.33;100.00
5296;BME280;2670;42.720;23.336;2023-05-09T04:13:14;-22803.31;;;12.42;100.00
5296;BME280;2670;42.720;23.336;2023-05-09T04:15:41;-22802.72;;;12.40;100.00
5296;BME280;2670;42.720;23.336;2023-05-09T04:18:08;-22803.75;;;12.44;100.00
5296;BME280;2670;42.720;23.336;2023-05-09T04:20:36;-22801.53;;;12.36;100.00
5296;BME280;2670;42.720;23.336;2023-05-09T04:23:03;-22802.72;;;12.40;100.00
5296;BME280;2670;42.720;23.336;2023-05-09T04:25:30;-22804.03;;;12.45;100.00
5296;BME280;2670;42.720;23.336;2023-05-09T04:27:57;-22804.19;;;12.45;100.00
5296;BME280;2670;42.720;23.336;2023-05-09T04:30:23;-22801.97;;;12.38;100.00
5296;BME280;2670;42.720;23.336;2023-05-09T04:32:51;-22804.19;;;12.45;100.00
5296;BME280;2670;42.720;23.336;2023-05-09T04:35:19;-22803.31;;;12.42;100.00
5296;BME280;2670;42.720;23.336;2023-05-09T04:37:47;-22803.75;;;12.44;100.00
5296;BME280;2670;42.720;23.336;2023-05-09T04:40:14;-22805.81;;;12.51;100.00
5296;BME280;2670;42.720;23.336;2023-05-09T04:42:41;-22804.03;;;12.45;100.00
5296;BME280;2670;42.720;23.336;2023-05-09T04:45:08;-22806.41;;;12.53;100.00
5296;BME280;2670;42.720;23.336;2023-05-09T04:47:36;-22807.72;;;12.58;100.00
5296;BME280;2670;42.720;23.336;2023-05-09T04:50:06;-22805.81;;;12.51;100.00
5296;BME280;2670;42.720;23.336;2023-05-09T04:52:33;-22805.97;;;12.52;100.00
5296;BME280;2670;42.720;23.336;2023-05-09T04:55:01;-22804.50;;;12.46;100.00
5296;BME280;2670;42.720;23.336;2023-05-09T04:57:28;-22805.66;;;12.51;100.00
5296;BME280;2670;42.720;23.336;2023-05-09T04:59:55;-22805.97;;;12.52;100.00
5296;BME280;2670;42.720;23.336;2023-05-09T05:02:21;-22805.81;;;12.51;100.00
5296;BME280;2670;42.720;23.336;2023-05-09T05:04:49;-22807.16;;;12.56;100.00
5296;BME280;2670;42.720;23.336;2023-05-09T05:07:16;-22805.53;;;12.50;100.00
5296;BME280;2670;42.720;23.336;2023-05-09T05:09:42;-22806.72;;;12.54;100.00
5296;BME280;2670;42.720;23.336;2023-05-09T05:12:10;-22806.25;;;12.53;100.00
5296;BME280;2670;42.720;23.336;2023-05-09T05:14:37;-22805.81;;;12.51;100.00
5296;BME280;2670;42.720;23.336;2023-05-09T05:17:04;-22807.28;;;12.56;100.00
5296;BME280;2670;42.720;23.336;2023-05-09T05:19:31;-22805.81;;;12.51;100.00
5296;BME280;2670;42.720;23.336;2023-05-09T05:21:58;-22809.94;;;12.65;100.00
5296;BME280;2670;42.720;23.336;2023-05-09T05:24:25;-22809.81;;;12.65;100.00
5296;BME280;2670;42.720;23.336;2023-05-09T05:26:51;-22812.16;;;12.73;100.00
5296;BME280;2670;42.720;23.336;2023-05-09T05:29:19;-22812.16;;;12.73;100.00
5296;BME280;2670;42.720;23.336;2023-05-09T05:31:46;-22811.88;;;12.72;100.00
5296;BME280;2670;42.720;23.336;2023-05-09T05:34:13;-22814.97;;;12.83;100.00
5296;BME280;2670;42.720;23.336;2023-05-09T05:36:41;-22816.31;;;12.87;100.00
5296;BME280;2670;42.720;23.336;2023-05-09T05:39:07;-22814.38;;;12.81;100.00
5296;BME280;2670;42.720;23.336;2023-05-09T05:41:34;-22815.72;;;12.85;100.00
5296;BME280;2670;42.720;23.336;2023-05-09T05:44:01;-22816.00;;;12.86;100.00
5296;BME280;2670;42.720;23.336;2023-05-09T05:46:29;-22817.19;;;12.90;100.00
5296;BME280;2670;42.720;23.336;2023-05-09T05:48:55;-22817.78;;;12.92;100.00
5296;BME280;2670;42.720;23.336;2023-05-09T05:51:22;-22819.56;;;12.99;100.00
5296;BME280;2670;42.720;23.336;2023-05-09T05:53:49;-22818.22;;;12.94;100.00
5296;BME280;2670;42.720;23.336;2023-05-09T05:56:16;-22822.22;;;13.08;100.00
5296;BME280;2670;42.720;23.336;2023-05-09T05:58:42;-22822.34;;;13.08;100.00
5296;BME280;2670;42.720;23.336;2023-05-09T06:01:09;-22821.78;;;13.06;100.00
5296;BME280;2670;42.720;23.336;2023-05-09T06:03:37;-22822.34;;;13.08;100.00
5296;BME280;2670;42.720;23.336;2023-05-09T06:06:04;-22824.88;;;13.17;100.00
5296;BME280;2670;42.720;23.336;2023-05-09T06:08:31;-22825.75;;;13.20;100.00
5296;BME280;2670;42.720;23.336;2023-05-09T06:10:57;-22827.53;;;13.26;100.00
5296;BME280;2670;42.720;23.336;2023-05-09T06:13:25;-22829.91;;;13.34;100.00
5296;BME280;2670;42.720;23.336;2023-05-09T06:15:54;-22830.94;;;13.38;100.00
5296;BME280;2670;42.720;23.336;2023-05-09T06:18:21;-22837.28;;;13.60;100.00
5296;BME280;2670;42.720;23.336;2023-05-09T06:20:49;-22842.44;;;13.78;100.00
5296;BME280;2670;42.720;23.336;2023-05-09T06:23:15;-22842.28;;;13.77;100.00
5296;BME280;2670;42.720;23.336;2023-05-09T06:25:46;-22841.72;;;13.75;100.00
5296;BME280;2670;42.720;23.336;2023-05-09T06:28:13;-22841.25;;;13.74;100.00
5296;BME280;2670;42.720;23.336;2023-05-09T06:30:40;-22844.22;;;13.84;100.00
5296;BME280;2670;42.720;23.336;2023-05-09T06:33:06;-22846.44;;;13.91;100.00
5296;BME280;2670;42.720;23.336;2023-05-09T06:35:33;-22847.75;;;13.96;100.00
5296;BME280;2670;42.720;23.336;2023-05-09T06:38:01;-22849.22;;;14.01;100.00
5296;BME280;2670;42.720;23.336;2023-05-09T06:40:28;-22851.00;;;14.07;100.00
5296;BME280;2670;42.720;23.336;2023-05-09T06:42:54;-22852.78;;;14.13;100.00
5296;BME280;2670;42.720;23.336;2023-05-09T06:45:21;-22852.78;;;14.13;100.00
5296;BME280;2670;42.720;23.336;2023-05-09T06:47:48;-22855.56;;;14.23;100.00
5296;BME280;2670;42.720;23.336;2023-05-09T06:50:15;-22855.44;;;14.23;100.00
5296;BME280;2670;42.720;23.336;2023-05-09T06:52:41;-22857.34;;;14.29;100.00
5296;BME280;2670;42.720;23.336;2023-05-09T06:55:12;-22857.94;;;14.31;100.00
5296;BME280;2670;42.720;23.336;2023-05-09T06:57:39;-22860.59;;;14.40;100.00
5296;BME280;2670;42.720;23.336;2023-05-09T07:00:06;-22855.88;;;14.24;100.00
5296;BME280;2670;42.720;23.336;2023-05-09T07:02:34;-22856.31;;;14.26;100.00
5296;BME280;2670;42.720;23.336;2023-05-09T07:05:01;-22857.63;;;14.30;100.00
5296;BME280;2670;42.720;23.336;2023-05-09T07:07:28;-22857.03;;;14.28;100.00
5296;BME280;2670;42.720;23.336;2023-05-09T07:09:54;-22856.75;;;14.27;100.00
5296;BME280;2670;42.720;23.336;2023-05-09T07:12:22;-22858.53;;;14.33;100.00
5296;BME280;2670;42.720;23.336;2023-05-09T07:14:49;-22861.03;;;14.42;100.00
5296;BME280;2670;42.720;23.336;2023-05-09T07:17:16;-22860.88;;;14.41;100.00
5296;BME280;2670;42.720;23.336;2023-05-09T07:19:42;-22859.69;;;14.37;100.00
5296;BME280;2670;42.720;23.336;2023-05-09T07:22:09;-22858.53;;;14.33;100.00
5296;BME280;2670;42.720;23.336;2023-05-09T07:24:37;-22856.47;;;14.26;100.00
5296;BME280;2670;42.720;23.336;2023-05-09T07:27:04;-22858.09;;;14.32;100.00
5296;BME280;2670;42.720;23.336;2023-05-09T07:29:32;-22858.81;;;14.34;100.00
5296;BME280;2670;42.720;23.336;2023-05-09T07:31:59;-22857.78;;;14.31;100.00
5296;BME280;2670;42.720;23.336;2023-05-09T07:34:25;-22854.53;;;14.19;100.00
5296;BME280;2670;42.720;23.336;2023-05-09T07:36:52;-22854.41;;;14.19;100.00
5296;BME280;2670;42.720;23.336;2023-05-09T07:39:19;-22855.13;;;14.22;100.00
5296;BME280;2670;42.720;23.336;2023-05-09T07:41:45;-22856.31;;;14.26;100.00
5296;BME280;2670;42.720;23.336;2023-05-09T07:44:12;-22855.72;;;14.24;100.00
5296;BME280;2670;42.720;23.336;2023-05-09T07:46:40;-22855.56;;;14.23;100.00
5296;BME280;2670;42.720;23.336;2023-05-09T07:49:07;-22853.50;;;14.16;100.00
5296;BME280;2670;42.720;23.336;2023-05-09T07:51:34;-22853.06;;;14.14;100.00
5296;BME280;2670;42.720;23.336;2023-05-09T07:54:00;-22854.84;;;14.20;100.00
5296;BME280;2670;42.720;23.336;2023-05-09T07:56:27;-22855.13;;;14.22;100.00
5296;BME280;2670;42.720;23.336;2023-05-09T07:58:54;-22857.34;;;14.29;100.00
5296;BME280;2670;42.720;23.336;2023-05-09T08:01:21;-22854.25;;;14.18;100.00
5296;BME280;2670;42.720;23.336;2023-05-09T08:03:49;-22853.06;;;14.14;100.00
5296;BME280;2670;42.720;23.336;2023-05-09T08:06:15;-22853.66;;;14.16;100.00
5296;BME280;2670;42.720;23.336;2023-05-09T08:08:42;-22853.06;;;14.14;100.00
5296;BME280;2670;42.720;23.336;2023-05-09T08:11:09;-22852.31;;;14.12;100.00
5296;BME280;2670;42.720;23.336;2023-05-09T08:13:35;-22852.31;;;14.12;100.00
5296;BME280;2670;42.720;23.336;2023-05-09T08:16:02;-22854.84;;;14.20;100.00
5296;BME280;2670;42.720;23.336;2023-05-09T08:18:29;-22855.88;;;14.24;100.00
5296;BME280;2670;42.720;23.336;2023-05-09T08:20:57;-22857.50;;;14.30;100.00
5296;BME280;2670;42.720;23.336;2023-05-09T08:23:24;-22856.47;;;14.26;100.00
5296;BME280;2670;42.720;23.336;2023-05-09T08:25:52;-22856.00;;;14.25;100.00
5296;BME280;2670;42.720;23.336;2023-05-09T08:28:19;-22856.16;;;14.25;100.00
5296;BME280;2670;42.720;23.336;2023-05-09T08:30:48;-22855.56;;;14.23;100.00
5296;BME280;2670;42.720;23.336;2023-05-09T08:33:15;-22856.91;;;14.28;100.00
5296;BME280;2670;42.720;23.336;2023-05-09T08:35:41;-22856.75;;;14.27;100.00
5296;BME280;2670;42.720;23.336;2023-05-09T08:38:10;-22853.22;;;14.15;100.00
5296;BME280;2670;42.720;23.336;2023-05-09T08:40:36;-22849.69;;;14.03;100.00
5296;BME280;2670;42.720;23.336;2023-05-09T08:43:05;-22849.97;;;14.04;100.00
5296;BME280;2670;42.720;23.336;2023-05-09T08:45:34;-22849.22;;;14.01;100.00
5296;BME280;2670;42.720;23.336;2023-05-09T08:48:02;-22848.63;;;13.99;100.00
5296;BME280;2670;42.720;23.336;2023-05-09T08:50:29;-22843.03;;;13.80;100.00
5296;BME280;2670;42.720;23.336;2023-05-09T08:52:56;-22840.97;;;13.73;100.00
5296;BME280;2670;42.720;23.336;2023-05-09T08:55:24;-22842.00;;;13.76;100.00
5296;BME280;2670;42.720;23.336;2023-05-09T08:57:51;-22839.66;;;13.68;100.00
5296;BME280;2670;42.720;23.336;2023-05-09T09:00:18;-22842.28;;;13.77;100.00
5296;BME280;2670;42.720;23.336;2023-05-09T09:02:46;-22840.38;;;13.70;100.00
5296;BME280;2670;42.720;23.336;2023-05-09T09:05:13;-22839.34;;;13.67;100.00
5296;BME280;2670;42.720;23.336;2023-05-09T09:07:40;-22838.91;;;13.65;100.00
5296;BME280;2670;42.720;23.336;2023-05-09T09:10:09;-22839.06;;;13.66;100.00
5296;BME280;2670;42.720;23.336;2023-05-09T09:12:38;-22839.19;;;13.66;100.00
5296;BME280;2670;42.720;23.336;2023-05-09T09:15:09;-22839.94;;;13.69;100.00
5296;BME280;2670;42.720;23.336;2023-05-09T09:17:42;-22837.88;;;13.62;100.00
5296;BME280;2670;42.720;23.336;2023-05-09T09:20:15;-22838.00;;;13.62;100.00
5296;BME280;2670;42.720;23.336;2023-05-09T09:22:46;-22841.56;;;13.75;100.00
5296;BME280;2670;42.720;23.336;2023-05-09T09:25:13;-22841.56;;;13.75;100.00
5296;BME280;2670;42.720;23.336;2023-05-09T09:27:41;-22843.34;;;13.81;100.00
5296;BME280;2670;42.720;23.336;2023-05-09T09:30:10;-22844.06;;;13.83;100.00
5296;BME280;2670;42.720;23.336;2023-05-09T09:32:37;-22844.66;;;13.85;100.00
5296;BME280;2670;42.720;23.336;2023-05-09T09:35:05;-22846.28;;;13.91;100.00
5296;BME280;2670;42.720;23.336;2023-05-09T09:37:33;-22850.28;;;14.05;100.00
5296;BME280;2670;42.720;23.336;2023-05-09T09:40:00;-22851.88;;;14.10;100.00
5296;BME280;2670;42.720;23.336;2023-05-09T09:42:26;-22853.06;;;14.14;100.00
5296;BME280;2670;42.720;23.336;2023-05-09T09:45:10;-22854.41;;;14.19;100.00
5296;BME280;2670;42.720;23.336;2023-05-09T09:47:38;-22853.81;;;14.17;100.00
5296;BME280;2670;42.720;23.336;2023-05-09T09:50:15;-22852.91;;;14.14;100.00
5296;BME280;2670;42.720;23.336;2023-05-09T09:52:43;-22853.38;;;14.15;100.00
5296;BME280;2670;42.720;23.336;2023-05-09T09:55:14;-22857.34;;;14.29;100.00
5296;BME280;2670;42.720;23.336;2023-05-09T09:57:41;-22861.47;;;14.43;100.00
5296;BME280;2670;42.720;23.336;2023-05-09T10:00:13;-22863.41;;;14.50;100.00
5296;BME280;2670;42.720;23.336;2023-05-09T10:02:47;-22867.81;;;14.65;100.00
5296;BME280;2670;42.720;23.336;2023-05-09T10:05:18;-22870.31;;;14.74;100.00
5296;BME280;2670;42.720;23.336;2023-05-09T10:07:49;-22874.59;;;14.89;100.00
5296;BME280;2670;42.720;23.336;2023-05-09T10:10:17;-22878.72;;;15.03;100.00
5296;BME280;2670;42.720;23.336;2023-05-09T10:12:44;-22879.31;;;15.05;100.00
5296;BME280;2670;42.720;23.336;2023-05-09T10:15:15;-22881.38;;;15.12;100.00
5296;BME280;2670;42.720;23.336;2023-05-09T10:17:43;-22882.41;;;15.16;100.00
5296;BME280;2670;42.720;23.336;2023-05-09T10:20:11;-22882.56;;;15.16;100.00
5296;BME280;2670;42.720;23.336;2023-05-09T10:22:42;-22883.88;;;15.21;100.00
5296;BME280;2670;42.720;23.336;2023-05-09T10:25:13;-22883.16;;;15.18;100.00
5296;BME280;2670;42.720;23.336;2023-05-09T10:27:44;-22883.44;;;15.19;100.00
5296;BME280;2670;42.720;23.336;2023-05-09T10:30:16;-22882.41;;;15.16;100.00
5296;BME280;2670;42.720;23.336;2023-05-09T10:32:47;-22887.84;;;15.35;100.00
5296;BME280;2670;42.720;23.336;2023-05-09T10:35:19;-22888.16;;;15.36;100.00
5296;BME280;2670;42.720;23.336;2023-05-09T10:37:46;-22887.84;;;15.35;100.00
5296;BME280;2670;42.720;23.336;2023-05-09T10:40:14;-22887.41;;;15.33;100.00
5296;BME280;2670;42.720;23.336;2023-05-09T10:42:41;-22885.94;;;15.28;100.00
5296;BME280;2670;42.720;23.336;2023-05-09T10:45:09;-22884.19;;;15.22;100.00
5296;BME280;2670;42.720;23.336;2023-05-09T10:47:39;-22881.06;;;15.11;100.00
5296;BME280;2670;42.720;23.336;2023-05-09T10:50:08;-22880.19;;;15.08;100.00
5296;BME280;2670;42.720;23.336;2023-05-09T10:53:05;-22879.31;;;15.05;100.00
5296;BME280;2670;42.720;23.336;2023-05-09T10:55:37;-22878.88;;;15.04;100.00
5296;BME280;2670;42.720;23.336;2023-05-09T10:58:18;-22876.97;;;14.97;100.00
5296;BME280;2670;42.720;23.336;2023-05-09T11:00:46;-22877.53;;;14.99;100.00
5296;BME280;2670;42.720;23.336;2023-05-09T11:03:14;-22881.66;;;15.13;100.00
5296;BME280;2670;42.720;23.336;2023-05-09T11:05:42;-22884.75;;;15.24;100.00
5296;BME280;2670;42.720;23.336;2023-05-09T11:08:23;-22884.31;;;15.23;100.00
5296;BME280;2670;42.720;23.336;2023-05-09T11:10:50;-22885.06;;;15.25;100.00
5296;BME280;2670;42.720;23.336;2023-05-09T11:13:18;-22884.31;;;15.23;100.00
5296;BME280;2670;42.720;23.336;2023-05-09T11:16:08;-22884.75;;;15.24;100.00
5296;BME280;2670;42.720;23.336;2023-05-09T11:18:49;-22885.06;;;15.25;100.00
5296;BME280;2670;42.720;23.336;2023-05-09T11:21:16;-22886.69;;;15.31;100.00
5296;BME280;2670;42.720;23.336;2023-05-09T11:23:45;-22885.34;;;15.26;100.00
5296;BME280;2670;42.720;23.336;2023-05-09T11:26:13;-22883.88;;;15.21;100.00
5296;BME280;2670;42.720;23.336;2023-05-09T11:28:40;-22883.16;;;15.18;100.00
5296;BME280;2670;42.720;23.336;2023-05-09T11:31:08;-22881.22;;;15.12;100.00
5296;BME280;2670;42.720;23.336;2023-05-09T11:33:37;-22881.22;;;15.12;100.00
5296;BME280;2670;42.720;23.336;2023-05-09T11:36:15;-22881.66;;;15.13;100.00
5296;BME280;2670;42.720;23.336;2023-05-09T11:38:43;-22882.25;;;15.15;100.00
5296;BME280;2670;42.720;23.336;2023-05-09T11:41:10;-22886.81;;;15.31;100.00
5296;BME280;2670;42.720;23.336;2023-05-09T11:43:38;-22890.66;;;15.44;100.00
5296;BME280;2670;42.720;23.336;2023-05-09T11:46:05;-22890.81;;;15.45;100.00
5296;BME280;2670;42.720;23.336;2023-05-09T11:48:37;-22894.03;;;15.56;100.00
5296;BME280;2670;42.720;23.336;2023-05-09T11:51:05;-22893.16;;;15.53;100.00
5296;BME280;2670;42.720;23.336;2023-05-09T11:53:32;-22897.72;;;15.69;100.00
5296;BME280;2670;42.720;23.336;2023-05-09T11:56:01;-22899.19;;;15.74;100.00
5296;BME280;2670;42.720;23.336;2023-05-09T11:58:29;-22898.03;;;15.70;100.00
5296;BME280;2670;42.720;23.336;2023-05-09T12:00:56;-22895.94;;;15.63;100.00
5296;BME280;2670;42.720;23.336;2023-05-09T12:03:23;-22891.38;;;15.47;100.00
5296;BME280;2670;42.720;23.336;2023-05-09T12:05:53;-22892.72;;;15.52;100.00
5296;BME280;2670;42.720;23.336;2023-05-09T12:08:20;-22892.72;;;15.52;100.00
5296;BME280;2670;42.720;23.336;2023-05-09T12:10:47;-22896.41;;;15.64;100.00
5296;BME280;2670;42.720;23.336;2023-05-09T12:13:14;-22897.13;;;15.67;100.00
5296;BME280;2670;42.720;23.336;2023-05-09T12:15:44;-22895.81;;;15.62;100.00
5296;BME280;2670;42.720;23.336;2023-05-09T12:18:10;-22894.63;;;15.58;100.00
5296;BME280;2670;42.720;23.336;2023-05-09T12:20:47;-22890.34;;;15.43;100.00
5296;BME280;2670;42.720;23.336;2023-05-09T12:23:16;-22890.06;;;15.42;100.00
5296;BME280;2670;42.720;23.336;2023-05-09T12:25:46;-22890.06;;;15.42;100.00
5296;BME280;2670;42.720;23.336;2023-05-09T12:28:13;-22887.41;;;15.33;100.00
5296;BME280;2670;42.720;23.336;2023-05-09T12:30:40;-22886.53;;;15.30;100.00
5296;BME280;2670;42.720;23.336;2023-05-09T12:33:08;-22884.47;;;15.23;100.00
5296;BME280;2670;42.720;23.336;2023-05-09T12:35:37;-22882.13;;;15.15;100.00
5296;BME280;2670;42.720;23.336;2023-05-09T12:38:03;-22881.66;;;15.13;100.00
5296;BME280;2670;42.720;23.336;2023-05-09T12:40:32;-22881.06;;;15.11;100.00
5296;BME280;2670;42.720;23.336;2023-05-09T12:42:59;-22883.88;;;15.21;100.00
5296;BME280;2670;42.720;23.336;2023-05-09T12:45:27;-22881.66;;;15.13;100.00
5296;BME280;2670;42.720;23.336;2023-05-09T12:47:55;-22880.34;;;15.09;100.00
5296;BME280;2670;42.720;23.336;2023-05-09T12:50:30;-22880.94;;;15.11;100.00
5296;BME280;2670;42.720;23.336;2023-05-09T12:53:00;-22882.56;;;15.16;100.00
5296;BME280;2670;42.720;23.336;2023-05-09T12:55:27;-22881.97;;;15.14;100.00